Time;durP1;ratioP1;P1;durP2;ratioP2;P2;SDS_P1;SDS_P2;PMS_P1;PMS_P2;Temp;Humidity;BMP_temperature;BMP_pressure;BME280_temperature;BME280_humidity;BME280_pressure;Samples;Min_cycle;Max_cycle;Signal;HPM_P1;HPM_P2
2022/07/19 00:02:07;;;;;;;9.32;7.03;;;17.60;99.90;;;;;;4962138;28;20046;-93
2022/07/19 00:04:40;;;;;;;9.18;6.90;;;19.10;99.90;;;;;;4954477;28;20081;-92
2022/07/19 00:07:06;;;;;;;9.50;6.57;;;19.10;99.90;;;;;;4972745;28;20046;-92
2022/07/19 00:09:33;;;;;;;8.30;6.53;;;18.90;99.90;;;;;;4956198;28;20054;-92
2022/07/19 00:12:01;;;;;;;9.23;6.70;;;19.10;99.90;;;;;;4968014;28;20102;-92
2022/07/19 00:14:30;;;;;;;9.05;6.03;;;18.90;99.90;;;;;;5005999;28;20069;-92
2022/07/19 00:17:14;;;;;;;12.70;6.50;;;19.10;99.90;;;;;;4991492;28;20030;-92
2022/07/19 00:19:50;;;;;;;7.22;6.47;;;18.90;99.90;;;;;;4982443;28;20042;-93
2022/07/19 00:22:23;;;;;;;10.30;6.93;;;18.20;99.90;;;;;;4957879;28;20082;-93
2022/07/19 00:25:01;;;;;;;;;;;;;;;;;;;;;
2022/07/19 00:27:30;;;;;;;9.68;6.97;;;18.80;99.90;;;;;;4982207;28;20089;-93
2022/07/19 00:30:16;;;;;;;9.50;6.75;;;18.70;99.90;;;;;;4950558;28;20041;-92
2022/07/19 00:32:42;;;;;;;11.52;7.35;;;18.80;99.90;;;;;;4969133;28;20054;-92
2022/07/19 00:35:28;;;;;;;8.55;7.32;;;18.80;99.90;;;;;;4949893;28;20085;-92
2022/07/19 00:38:08;;;;;;;14.90;7.63;;;18.80;99.90;;;;;;4967513;28;20049;-92
2022/07/19 00:40:36;;;;;;;9.00;7.00;;;18.80;99.90;;;;;;4985100;28;20030;-92
2022/07/19 00:43:06;;;;;;;9.30;7.15;;;18.90;99.90;;;;;;4986181;28;20080;-91
2022/07/19 00:45:32;;;;;;;11.55;7.78;;;18.60;99.90;;;;;;4987519;28;20056;-92
2022/07/19 00:48:02;;;;;;;11.93;8.35;;;18.60;99.90;;;;;;4963584;28;20046;-93
2022/07/19 00:50:29;;;;;;;9.07;8.10;;;19.20;99.90;;;;;;4963248;28;20046;-92
2022/07/19 00:53:00;;;;;;;9.30;7.38;;;18.60;99.90;;;;;;4960537;28;20180;-91
2022/07/19 00:55:38;;;;;;;9.18;7.38;;;17.00;99.90;;;;;;4966385;28;20123;-91
2022/07/19 00:58:13;;;;;;;;;;;;;;;;;;;;;
2022/07/19 01:00:43;;;;;;;9.43;6.72;;;18.70;99.90;;;;;;4996057;28;20050;-92
2022/07/19 01:03:21;;;;;;;;;;;;;;;;;;;;;
2022/07/19 01:05:55;;;;;;;11.60;7.18;;;18.50;99.90;;;;;;4992081;28;20046;-91
2022/07/19 01:08:25;;;;;;;8.98;7.18;;;18.60;99.90;;;;;;4992997;28;20501;-90
2022/07/19 01:11:01;;;;;;;9.13;6.97;;;18.40;99.90;;;;;;4984613;28;20058;-91
2022/07/19 01:13:31;;;;;;;8.80;6.53;;;18.40;99.90;;;;;;4979170;28;20046;-90
2022/07/19 01:15:57;;;;;;;8.50;6.65;;;18.20;99.90;;;;;;4967085;28;20050;-91
2022/07/19 01:18:33;;;;;;;8.13;6.40;;;18.20;99.90;;;;;;4968219;28;20053;-90
2022/07/19 01:21:07;;;;;;;7.25;5.88;;;18.30;99.90;;;;;;4951981;28;20501;-93
2022/07/19 01:23:40;;;;;;;8.23;6.40;;;18.40;99.90;;;;;;4949134;28;20046;-92
2022/07/19 01:26:08;;;;;;;7.72;6.60;;;17.30;99.90;;;;;;4972841;28;20038;-91
2022/07/19 01:28:37;;;;;;;6.90;6.20;;;18.20;99.90;;;;;;4978079;28;20089;-91
2022/07/19 01:31:10;;;;;;;8.57;6.72;;;18.20;99.90;;;;;;4972623;28;20493;-92
2022/07/19 01:33:48;;;;;;;11.02;6.90;;;18.30;99.90;;;;;;4989231;28;20112;-94
2022/07/19 01:36:19;;;;;;;10.60;7.28;;;17.90;99.90;;;;;;4957628;28;20085;-92
2022/07/19 01:38:45;;;;;;;8.13;6.75;;;18.30;99.90;;;;;;4954259;28;20042;-92
2022/07/19 01:41:23;;;;;;;9.45;7.03;;;18.20;99.90;;;;;;4985128;28;20081;-93
2022/07/19 01:43:48;;;;;;;11.65;7.72;;;18.20;99.90;;;;;;4971567;28;20280;-90
2022/07/19 01:46:24;;;;;;;11.65;7.40;;;18.10;99.90;;;;;;4965045;28;20040;-91
2022/07/19 01:48:50;;;;;;;10.30;7.40;;;18.20;99.90;;;;;;5005483;28;20085;-92
2022/07/19 01:51:18;;;;;;;8.55;7.18;;;18.00;99.90;;;;;;5004401;28;20026;-91
2022/07/19 01:53:46;;;;;;;8.75;6.78;;;18.20;99.90;;;;;;5004660;28;20046;-93
2022/07/19 01:56:18;;;;;;;9.50;7.47;;;18.60;99.90;;;;;;4970283;28;20060;-92
2022/07/19 01:58:44;;;;;;;10.18;8.02;;;17.60;99.90;;;;;;4966192;28;20121;-89
2022/07/19 02:01:10;;;;;;;11.10;8.48;;;18.80;99.90;;;;;;4957996;28;20030;-90
2022/07/19 02:03:35;;;;;;;9.07;7.55;;;18.00;99.90;;;;;;5020209;28;20040;-91
2022/07/19 02:06:05;;;;;;;11.10;8.38;;;17.80;99.90;;;;;;4984523;28;20085;-90
2022/07/19 02:08:46;;;;;;;8.45;7.53;;;17.90;99.90;;;;;;4992375;28;20053;-89
2022/07/19 02:14:00;;;;;;;9.85;7.40;;;17.80;99.90;;;;;;4984068;28;20394;-90
2022/07/19 02:16:25;;;;;;;9.60;7.90;;;17.70;99.90;;;;;;4984653;28;20077;-91
2022/07/19 02:18:55;;;;;;;11.15;7.95;;;17.70;99.90;;;;;;4971669;28;20069;-91
2022/07/19 02:21:28;;;;;;;12.48;7.97;;;17.70;99.90;;;;;;4954138;28;20137;-90
2022/07/19 02:23:58;;;;;;;13.70;8.85;;;17.70;99.90;;;;;;4954819;28;20049;-92
2022/07/19 02:26:24;;;;;;;9.65;8.30;;;17.70;99.90;;;;;;4969209;28;20042;-90
2022/07/19 02:28:56;;;;;;;12.40;8.40;;;17.60;99.90;;;;;;4968240;28;20474;-91
2022/07/19 02:31:30;;;;;;;11.20;7.85;;;17.00;99.90;;;;;;4972164;28;20042;-93
2022/07/19 02:33:58;;;;;;;10.73;7.82;;;17.50;99.90;;;;;;4945232;28;20474;-91
2022/07/19 02:36:29;;;;;;;9.10;7.93;;;17.40;99.90;;;;;;4998548;28;20046;-91
2022/07/19 02:38:59;;;;;;;9.40;7.85;;;17.40;99.90;;;;;;4962592;28;20128;-90
2022/07/19 02:41:35;;;;;;;;;;;;;;;;;;;;;
2022/07/19 02:44:06;;;;;;;11.73;8.55;;;17.60;99.90;;;;;;4982111;28;20057;-90
2022/07/19 02:46:39;;;;;;;10.55;8.35;;;17.40;99.90;;;;;;4965146;28;20050;-92
2022/07/19 02:49:11;;;;;;;9.85;8.82;;;17.40;99.90;;;;;;4966255;28;20042;-90
2022/07/19 02:51:39;;;;;;;11.02;8.43;;;17.50;99.90;;;;;;4965152;28;20042;-91
2022/07/19 02:54:05;;;;;;;12.18;8.25;;;17.30;99.90;;;;;;4964131;28;20050;-90
2022/07/19 02:56:35;;;;;;;11.70;7.93;;;17.30;99.90;;;;;;4948333;28;20453;-92
2022/07/19 02:59:04;;;;;;;11.00;8.43;;;17.30;99.90;;;;;;4958673;28;20097;-90
2022/07/19 03:01:30;;;;;;;10.20;8.32;;;17.20;99.90;;;;;;4945838;28;20093;-91
2022/07/19 03:03:59;;;;;;;10.98;8.43;;;17.10;99.90;;;;;;4954745;28;20046;-90
2022/07/19 03:06:30;;;;;;;12.93;8.75;;;17.10;99.90;;;;;;4962006;28;20465;-92
2022/07/19 03:09:01;;;;;;;9.65;7.75;;;17.10;99.90;;;;;;4977512;28;20078;-91
2022/07/19 03:11:29;;;;;;;13.35;8.45;;;17.10;99.90;;;;;;4985398;28;20050;-93
2022/07/19 03:14:00;;;;;;;10.48;8.05;;;17.10;99.90;;;;;;4963692;28;20091;-91
2022/07/19 03:16:34;;;;;;;8.98;7.60;;;16.90;99.90;;;;;;4964875;28;20087;-91
2022/07/19 03:19:09;;;;;;;;;;;;;;;;;;;;;
2022/07/19 03:21:43;;;;;;;12.57;8.65;;;17.00;99.90;;;;;;4986421;28;20094;-92
2022/07/19 03:24:11;;;;;;;11.05;7.85;;;17.00;99.90;;;;;;4980145;28;20033;-92
2022/07/19 03:26:42;;;;;;;9.50;7.25;;;17.10;99.90;;;;;;4984270;28;20034;-92
2022/07/19 03:29:15;;;;;;;12.48;7.65;;;15.50;99.90;;;;;;4962575;28;20030;-91
2022/07/19 03:31:41;;;;;;;10.82;8.18;;;17.30;99.90;;;;;;4989441;28;20049;-91
2022/07/19 03:34:07;;;;;;;11.48;7.78;;;18.50;99.90;;;;;;4966419;28;20104;-93
2022/07/19 03:36:38;;;;;;;12.57;9.13;;;19.10;99.90;;;;;;4970084;28;20072;-91
2022/07/19 03:39:06;;;;;;;10.52;8.30;;;17.30;99.90;;;;;;5007591;28;20061;-92
2022/07/19 03:41:38;;;;;;;9.10;6.88;;;16.50;99.90;;;;;;4987697;28;20057;-92
2022/07/19 03:44:04;;;;;;;9.32;6.97;;;17.30;99.90;;;;;;5003628;28;20050;-91
2022/07/19 03:46:30;;;;;;;11.25;8.07;;;17.50;99.90;;;;;;4985487;28;20021;-91
2022/07/19 03:48:59;;;;;;;11.20;7.70;;;15.80;99.90;;;;;;4965760;28;20066;-91
2022/07/19 03:51:25;;;;;;;9.70;7.20;;;17.40;99.90;;;;;;4961353;28;20136;-91
2022/07/19 03:53:53;;;;;;;10.52;7.18;;;17.40;99.90;;;;;;4971583;28;20046;-92
2022/07/19 03:56:26;;;;;;;9.80;7.30;;;17.50;99.90;;;;;;4984569;28;20038;-92
2022/07/19 03:58:59;;;;;;;10.02;7.45;;;17.40;99.90;;;;;;4998763;28;20038;-92
2022/07/19 04:01:25;;;;;;;9.37;7.30;;;17.40;99.90;;;;;;4982680;28;20085;-93
2022/07/19 04:03:55;;;;;;;9.68;7.55;;;17.40;99.90;;;;;;4971382;28;20046;-91
2022/07/19 04:06:27;;;;;;;14.35;7.50;;;17.50;99.90;;;;;;4981345;28;20081;-93
2022/07/19 04:08:56;;;;;;;11.98;8.32;;;16.20;99.90;;;;;;4976875;28;20050;-91
2022/07/19 04:11:22;;;;;;;10.15;7.78;;;17.50;99.90;;;;;;4984815;28;20457;-91
2022/07/19 04:13:57;;;;;;;9.45;7.13;;;17.70;99.90;;;;;;4977382;28;20457;-92
2022/07/19 04:16:35;;;;;;;11.63;7.85;;;17.50;99.90;;;;;;4970151;28;20471;-90
2022/07/19 04:19:12;;;;;;;11.75;7.40;;;17.60;99.90;;;;;;4968032;28;20049;-93
2022/07/19 04:21:55;;;;;;;9.38;7.03;;;17.70;99.90;;;;;;4967664;28;20046;-92
2022/07/19 04:24:41;;;;;;;13.95;7.93;;;17.90;99.90;;;;;;4982304;28;20057;-92
2022/07/19 04:27:07;;;;;;;9.57;8.02;;;17.90;99.90;;;;;;4984045;28;20058;-92
2022/07/19 04:29:39;;;;;;;10.95;8.05;;;18.00;99.90;;;;;;4950279;28;20050;-93
2022/07/19 04:32:18;;;;;;;12.23;8.32;;;18.10;99.90;;;;;;4987862;28;20561;-92
2022/07/19 04:34:50;;;;;;;10.45;7.85;;;18.00;99.90;;;;;;5017003;28;20050;-91
2022/07/19 04:37:23;;;;;;;10.90;8.57;;;17.90;99.90;;;;;;4982538;28;20038;-94
2022/07/19 04:40:09;;;;;;;;;;;;;;;;;;;;;
2022/07/19 04:42:35;;;;;;;10.75;8.10;;;18.20;99.90;;;;;;4994632;28;20102;-93
2022/07/19 04:45:06;;;;;;;9.68;7.60;;;18.10;99.90;;;;;;4959034;28;20461;-91
2022/07/19 04:47:34;;;;;;;11.10;7.60;;;18.60;99.90;;;;;;4957855;28;20043;-92
2022/07/19 04:50:07;;;;;;;11.95;6.97;;;18.80;99.90;;;;;;4999782;28;20026;-92
2022/07/19 04:52:35;;;;;;;8.82;7.00;;;19.30;99.90;;;;;;4986259;28;20040;-91
2022/07/19 04:55:07;;;;;;;8.70;7.20;;;19.80;99.90;;;;;;4970293;28;20035;-91
2022/07/19 04:57:36;;;;;;;9.52;7.03;;;20.50;99.90;;;;;;4969952;28;20037;-93
2022/07/19 05:00:12;;;;;;;10.35;6.82;;;20.90;99.90;;;;;;4968072;28;20037;-93
2022/07/19 05:02:43;;;;;;;7.53;6.20;;;21.10;99.90;;;;;;4975829;28;20046;-94
2022/07/19 05:05:13;;;;;;;10.10;6.65;;;22.00;99.90;;;;;;4962546;28;20054;-94
2022/07/19 05:07:57;;;;;;;11.48;6.65;;;22.00;99.90;;;;;;4967085;28;20486;-93
2022/07/19 05:10:35;;;;;;;10.00;6.68;;;22.40;99.90;;;;;;4963773;28;20486;-93
2022/07/19 05:13:12;;;;;;;9.32;6.93;;;23.00;99.90;;;;;;4950019;28;20657;-94
2022/07/19 05:15:48;;;;;;;10.48;6.57;;;23.30;99.90;;;;;;4957626;28;20116;-93
2022/07/19 05:18:33;;;;;;;7.75;6.10;;;22.60;99.90;;;;;;4952729;28;20125;-93
2022/07/19 05:21:24;;;;;;;7.10;6.22;;;24.60;99.90;;;;;;4966536;28;20057;-94
2022/07/19 05:27:12;;;;;;;;;;;;;;;;;;;;;
2022/07/19 05:30:43;;;;;;;;;;;;;;;;;;;;;
2022/07/19 05:44:01;;;;;;;6.53;5.90;;;26.60;99.90;;;;;;4991981;28;20050;-93
2022/07/19 05:46:40;;;;;;;6.80;6.13;;;26.90;99.90;;;;;;4951707;28;20037;-93
2022/07/19 05:49:43;;;;;;;7.05;6.28;;;26.80;99.90;;;;;;4988453;28;20026;-93
2022/07/19 05:52:46;;;;;;;7.25;6.53;;;25.70;99.90;;;;;;4966853;28;20061;-94
2022/07/19 06:02:17;;;;;;;;;;;;;;;;;;;;;
2022/07/19 06:56:59;;;;;;;6.90;5.30;;;31.80;95.70;;;;;;4845225;29;20067;-93
2022/07/19 06:59:35;;;;;;;;;;;;;;;;;;;;;
2022/07/19 07:08:01;;;;;;;5.72;5.18;;;32.00;95.90;;;;;;4864637;29;20053;-94
2022/07/19 07:10:39;;;;;;;6.40;5.10;;;31.90;95.90;;;;;;4808634;29;20065;-96
2022/07/19 07:13:14;;;;;;;7.28;5.47;;;32.20;95.40;;;;;;4831609;29;20049;-94
2022/07/19 07:16:04;;;;;;;;;;;;;;;;;;;;;
2022/07/19 07:19:17;;;;;;;5.38;4.55;;;31.30;95.70;;;;;;4815227;29;20030;-96
2022/07/19 07:22:12;;;;;;;;;;;31.00;95.70;;;;;;4805613;29;20088;-96
2022/07/19 07:24:47;;;;;;;5.10;4.47;;;31.40;95.80;;;;;;4819139;29;19972;-93
2022/07/19 07:27:30;;;;;;;6.53;4.30;;;32.40;96.10;;;;;;4754497;30;20386;-95
2022/07/19 07:36:22;;;;;;;7.70;4.88;;;33.00;95.60;;;;;;5002097;24;20491;-89
2022/07/19 07:38:58;;;;;;;;;;;;;;;;;;;;;
2022/07/19 07:41:30;;;;;;;7.68;4.25;;;32.20;95.80;;;;;;4829115;29;20030;-89
2022/07/19 07:43:58;;;;;;;6.13;4.03;;;32.80;95.50;;;;;;4844054;29;20056;-91
2022/07/19 07:46:26;;;;;;;5.85;4.43;;;33.10;95.00;;;;;;4841393;29;20057;-90
2022/07/19 07:48:55;;;;;;;6.05;4.15;;;32.90;95.20;;;;;;4806634;29;20069;-90
2022/07/19 07:51:24;;;;;;;4.97;4.47;;;32.80;95.20;;;;;;4829511;29;20080;-91
2022/07/19 07:53:50;;;;;;;5.22;4.05;;;32.50;95.60;;;;;;4820513;29;20099;-90
2022/07/19 07:56:18;;;;;;;5.97;4.20;;;32.80;95.80;;;;;;4860730;29;20053;-92
2022/07/19 07:58:43;;;;;;;4.50;4.07;;;33.10;95.40;;;;;;4848904;29;20050;-93
2022/07/19 08:01:19;;;;;;;6.00;4.55;;;32.80;95.40;;;;;;4853936;29;20029;-96
2022/07/19 08:03:47;;;;;;;4.15;3.75;;;33.10;95.70;;;;;;4862185;29;20029;-92
2022/07/19 08:06:16;;;;;;;3.95;3.55;;;33.50;95.10;;;;;;4865866;29;20053;-92
2022/07/19 08:08:44;;;;;;;5.53;3.92;;;32.70;95.90;;;;;;4827136;29;20061;-92
2022/07/19 08:11:10;;;;;;;5.25;3.60;;;33.70;96.00;;;;;;4820827;29;20057;-93
2022/07/19 08:13:39;;;;;;;4.70;3.97;;;33.80;96.40;;;;;;4805694;29;20065;-89
2022/07/19 08:16:23;;;;;;;4.10;3.60;;;33.30;95.20;;;;;;4821277;29;20042;-88
2022/07/19 08:18:59;;;;;;;4.93;4.00;;;34.70;94.80;;;;;;4817008;29;20050;-91
2022/07/19 08:21:30;;;;;;;6.57;3.95;;;34.80;94.80;;;;;;4825973;29;20050;-89
2022/07/19 08:23:59;;;;;;;5.63;4.03;;;34.50;94.90;;;;;;4820116;29;20045;-92
2022/07/19 08:26:25;;;;;;;3.70;3.35;;;34.20;95.20;;;;;;4823242;29;20058;-91
2022/07/19 08:28:56;;;;;;;4.75;3.80;;;34.10;94.80;;;;;;4826760;29;20049;-90
2022/07/19 08:31:22;;;;;;;6.13;3.67;;;34.90;94.70;;;;;;4818250;29;20090;-92
2022/07/19 08:34:03;;;;;;;;;;;;;;;;;;;;;
2022/07/19 08:36:48;;;;;;;6.97;3.60;;;35.00;94.80;;;;;;4816109;29;20065;-91
2022/07/19 08:39:20;;;;;;;4.50;3.78;;;35.20;94.80;;;;;;4834960;29;20061;-94
2022/07/19 08:41:55;;;;;;;6.03;3.92;;;35.30;94.80;;;;;;4849404;29;20060;-93
2022/07/19 08:44:20;;;;;;;5.50;3.40;;;35.50;95.10;;;;;;4816449;29;20045;-91
2022/07/19 08:46:58;;;;;;;4.30;3.90;;;35.30;94.80;;;;;;4825177;29;20068;-92
2022/07/19 08:49:24;;;;;;;3.90;3.28;;;35.60;94.20;;;;;;4817610;29;20120;-89
2022/07/19 08:51:59;;;;;;;4.45;3.53;;;35.90;94.40;;;;;;4817554;29;20160;-92
2022/07/19 08:54:48;;;;;;;4.13;3.17;;;35.60;94.30;;;;;;4830125;29;20049;-93
2022/07/19 09:00:51;;;;;;;9.13;3.85;;;35.80;93.90;;;;;;4865065;29;20049;-95
2022/07/19 09:03:36;;;;;;;4.90;3.15;;;36.10;94.10;;;;;;4838908;29;20133;-93
2022/07/19 09:06:07;;;;;;;6.57;3.20;;;34.50;93.00;;;;;;4812939;29;20045;-94
2022/07/19 09:08:45;;;;;;;4.77;3.03;;;35.70;94.20;;;;;;4816995;29;20302;-94
2022/07/19 09:11:15;;;;;;;4.32;3.03;;;36.10;93.80;;;;;;4815586;29;20061;-93
2022/07/19 09:14:01;;;;;;;4.38;3.05;;;35.70;93.20;;;;;;4813687;29;20098;-94
2022/07/19 09:16:56;;;;;;;3.13;2.75;;;36.10;93.30;;;;;;4834250;29;20053;-92
2022/07/19 09:19:46;;;;;;;4.53;2.90;;;37.30;93.60;;;;;;4844484;29;20113;-94
2022/07/19 09:22:33;;;;;;;3.72;3.03;;;36.10;93.20;;;;;;4842141;29;20108;-92
2022/07/19 09:25:02;;;;;;;3.85;2.88;;;36.40;93.40;;;;;;4822514;29;20069;-90
2022/07/19 09:27:31;;;;;;;4.45;2.85;;;35.50;92.60;;;;;;4837458;29;20081;-89
2022/07/19 09:30:01;;;;;;;3.40;2.97;;;36.10;93.90;;;;;;4803675;29;20048;-90
2022/07/19 09:32:43;;;;;;;;;;;;;;;;;;;;;
2022/07/19 09:35:09;;;;;;;4.43;3.38;;;36.90;93.30;;;;;;4854026;29;20065;-91
2022/07/19 09:38:14;;;;;;;;;;;;;;;;;;;;;
2022/07/19 09:41:35;;;;;;;3.63;3.10;;;36.50;92.70;;;;;;4841050;29;20050;-94
2022/07/19 09:44:12;;;;;;;3.10;2.90;;;37.20;92.90;;;;;;4776669;29;20066;-93
2022/07/19 09:57:44;;;;;;;;;;;;;;;;;;;;;
2022/07/19 10:03:46;;;;;;;3.47;2.80;;;37.00;91.70;;;;;;4770825;30;20091;-94
2022/07/19 10:06:24;;;;;;;3.70;2.33;;;36.90;92.00;;;;;;4848298;29;20466;-94
2022/07/19 10:09:01;;;;;;;3.22;2.40;;;37.30;91.80;;;;;;4834601;29;20499;-95
2022/07/19 10:11:44;;;;;;;4.47;2.60;;;37.70;91.20;;;;;;4805550;29;20056;-94
2022/07/19 10:26:32;;;;;;;2.65;2.10;;;37.10;90.70;;;;;;4994944;23;20289;-93
2022/07/19 10:29:20;;;;;;;2.97;2.10;;;37.40;91.20;;;;;;4841787;29;20050;-94
2022/07/19 10:32:05;;;;;;;4.10;2.25;;;37.30;90.20;;;;;;4808469;29;20525;-94
2022/07/19 10:34:31;;;;;;;2.50;2.30;;;37.70;90.20;;;;;;4819987;29;20045;-93
2022/07/19 10:37:06;;;;;;;3.75;2.63;;;37.50;90.30;;;;;;4836759;29;20049;-93
2022/07/19 10:39:40;;;;;;;3.33;2.08;;;37.20;90.20;;;;;;4807056;29;20050;-93
2022/07/19 10:42:17;;;;;;;2.88;2.08;;;37.40;89.70;;;;;;4820663;29;20065;-94
2022/07/19 10:45:00;;;;;;;4.07;2.13;;;37.10;88.50;;;;;;4829388;29;20057;-92
2022/07/19 10:47:36;;;;;;;2.60;2.05;;;37.40;90.30;;;;;;4838360;29;20156;-94
2022/07/19 10:50:21;;;;;;;2.47;2.20;;;37.80;89.00;;;;;;4838667;29;20053;-94
2022/07/19 10:52:49;;;;;;;3.83;2.10;;;36.20;87.80;;;;;;4816367;29;20461;-91
2022/07/19 10:55:27;;;;;;;4.57;2.17;;;37.80;90.00;;;;;;4818129;29;20057;-93
2022/07/19 10:58:08;;;;;;;2.55;2.25;;;37.70;88.20;;;;;;4849468;29;20093;-95
2022/07/19 11:01:03;;;;;;;;;;;;;;;;;;;;;
2022/07/19 11:03:32;;;;;;;2.60;2.38;;;37.20;87.80;;;;;;4828046;29;20045;-91
2022/07/19 11:06:04;;;;;;;3.33;2.10;;;37.80;88.40;;;;;;4806039;29;20034;-95
2022/07/19 11:08:41;;;;;;;3.63;2.30;;;37.60;87.40;;;;;;4861309;29;20049;-93
2022/07/19 11:11:11;;;;;;;2.60;2.40;;;38.40;88.20;;;;;;4842428;29;20037;-89
2022/07/19 11:13:42;;;;;;;2.72;2.30;;;37.60;88.60;;;;;;4856284;29;20050;-94
2022/07/19 11:16:08;;;;;;;2.35;2.15;;;37.50;88.90;;;;;;4792524;29;20054;-93
2022/07/19 11:18:34;;;;;;;2.50;2.30;;;37.40;87.10;;;;;;4810943;29;20132;-86
2022/07/19 11:21:02;;;;;;;5.38;2.15;;;37.50;87.30;;;;;;4835205;29;20384;-95
2022/07/19 11:23:29;;;;;;;4.28;2.33;;;37.40;87.40;;;;;;4835251;29;20045;-92
2022/07/19 11:26:25;;;;;;;2.22;2.05;;;36.90;86.80;;;;;;4841557;29;20054;-90
2022/07/19 11:28:51;;;;;;;3.65;2.17;;;37.00;90.20;;;;;;4818496;29;20054;-92
2022/07/19 11:31:23;;;;;;;2.72;2.47;;;36.90;87.60;;;;;;4842286;29;20041;-91
2022/07/19 11:33:56;;;;;;;2.85;2.53;;;36.80;87.30;;;;;;4819325;29;20125;-91
2022/07/19 11:36:26;;;;;;;2.95;2.50;;;36.70;88.20;;;;;;4833957;29;20109;-95
2022/07/19 11:38:53;;;;;;;5.85;2.45;;;37.20;88.10;;;;;;4819764;29;20042;-93
2022/07/19 11:41:48;;;;;;;2.90;2.60;;;36.60;87.40;;;;;;4834454;29;20041;-92
2022/07/19 11:44:27;;;;;;;;;;;;;;;;;;;;;
2022/07/19 11:47:00;;;;;;;3.97;2.60;;;37.40;88.90;;;;;;4856214;29;20050;-91
2022/07/19 11:52:02;;;;;;;3.53;2.40;;;36.30;87.30;;;;;;4909831;23;20057;-90
2022/07/19 11:54:27;;;;;;;2.85;2.25;;;36.20;87.40;;;;;;4820843;29;20106;-91
2022/07/19 11:56:59;;;;;;;2.67;2.20;;;36.20;87.60;;;;;;4831198;29;20054;-94
2022/07/19 11:59:36;;;;;;;3.33;2.63;;;36.30;88.20;;;;;;4829536;29;20050;-92
2022/07/19 12:02:07;;;;;;;3.38;2.40;;;36.60;88.70;;;;;;4843218;29;20109;-93
2022/07/19 12:04:42;;;;;;;5.07;2.78;;;35.10;87.30;;;;;;4832826;29;20056;-94
2022/07/19 12:07:10;;;;;;;4.10;2.42;;;35.80;88.20;;;;;;4813478;29;20053;-92
2022/07/19 12:09:38;;;;;;;3.28;2.33;;;36.40;87.00;;;;;;4840228;29;20447;-90
2022/07/19 12:12:14;;;;;;;2.42;2.22;;;36.60;85.90;;;;;;4817191;29;20479;-89
2022/07/19 12:14:41;;;;;;;3.78;2.35;;;36.40;85.80;;;;;;4835935;29;20064;-88
2022/07/19 12:17:13;;;;;;;4.82;2.30;;;36.50;86.70;;;;;;4863646;29;20410;-91
2022/07/19 12:19:40;;;;;;;2.70;2.13;;;36.30;85.90;;;;;;4851964;29;20509;-89
2022/07/19 12:22:06;;;;;;;5.15;2.63;;;36.40;86.40;;;;;;4850137;29;20474;-90
2022/07/19 12:29:47;;;;;;;4.65;2.38;;;36.60;85.80;;;;;;5181696;23;19931;-84
2022/07/19 12:32:37;;;;;;;3.42;2.60;;;36.30;84.30;;;;;;4837886;29;20050;-90
2022/07/19 12:35:05;;;;;;;3.90;2.15;;;36.50;84.80;;;;;;4839722;29;20077;-92
2022/07/19 12:37:35;;;;;;;4.57;2.38;;;36.50;84.40;;;;;;4822593;29;20041;-92
2022/07/19 12:40:08;;;;;;;3.58;1.88;;;36.60;83.80;;;;;;4822909;29;20042;-93
2022/07/19 12:42:59;;;;;;;2.28;2.08;;;36.60;84.90;;;;;;4818655;29;20219;-91
2022/07/19 12:45:32;;;;;;;4.32;2.10;;;36.50;84.60;;;;;;4827290;29;20092;-92
2022/07/19 12:48:00;;;;;;;2.75;2.20;;;36.70;82.60;;;;;;4827267;29;20054;-91
2022/07/19 12:50:28;;;;;;;3.13;1.83;;;36.50;82.40;;;;;;4811336;29;20058;-89
2022/07/19 12:52:57;;;;;;;2.13;1.80;;;36.70;83.90;;;;;;4824221;29;20071;-89
2022/07/19 12:55:25;;;;;;;4.72;1.80;;;36.70;83.70;;;;;;4823667;29;20094;-89
2022/07/19 12:57:54;;;;;;;3.70;2.38;;;36.70;84.40;;;;;;4808952;29;20042;-89
2022/07/19 13:00:21;;;;;;;3.90;1.95;;;36.70;83.20;;;;;;4823939;29;20068;-86
2022/07/19 13:03:00;;;;;;;2.85;1.70;;;36.90;83.10;;;;;;4831038;29;20041;-92
2022/07/19 13:05:37;;;;;;;3.03;1.90;;;37.00;83.30;;;;;;4808484;29;20118;-94
2022/07/19 13:08:31;;;;;;;;;;;;;;;;;;;;;
2022/07/19 13:11:00;;;;;;;2.95;1.95;;;36.60;82.10;;;;;;4815357;29;20478;-93
2022/07/19 13:14:00;;;;;;;1.70;1.60;;;36.50;82.80;;;;;;4791941;29;20133;-93
2022/07/19 13:16:35;;;;;;;3.85;1.73;;;36.30;81.50;;;;;;4827221;29;20050;-94
2022/07/19 13:19:27;;;;;;;4.68;1.90;;;36.60;81.50;;;;;;4790902;29;20053;-94
2022/07/19 13:22:05;;;;;;;1.75;1.65;;;36.90;81.50;;;;;;4833753;29;20058;-93
2022/07/19 13:24:39;;;;;;;1.70;1.60;;;37.00;82.50;;;;;;4813971;29;20106;-93
2022/07/19 13:27:05;;;;;;;4.40;1.83;;;36.80;80.50;;;;;;4793321;29;20053;-92
2022/07/19 13:29:31;;;;;;;3.92;2.05;;;36.80;81.20;;;;;;4785528;29;20168;-90
2022/07/19 13:32:02;;;;;;;4.43;1.60;;;36.70;81.70;;;;;;4788926;29;20083;-93
2022/07/19 13:34:29;;;;;;;4.15;2.05;;;35.50;80.50;;;;;;4818000;29;20046;-88
2022/07/19 13:36:55;;;;;;;1.73;1.63;;;36.90;81.70;;;;;;4829645;29;20539;-88
2022/07/19 13:39:20;;;;;;;2.28;1.70;;;37.00;81.70;;;;;;4799623;29;20073;-90
2022/07/19 13:41:52;;;;;;;4.28;1.85;;;37.00;82.10;;;;;;4815769;29;20136;-88
2022/07/19 13:44:27;;;;;;;2.35;1.83;;;36.30;80.50;;;;;;4798390;29;20092;-89
2022/07/19 13:46:53;;;;;;;1.77;1.67;;;36.80;79.50;;;;;;4785861;29;20121;-87
2022/07/19 13:49:28;;;;;;;1.92;1.75;;;37.20;81.00;;;;;;4783974;29;20367;-88
2022/07/19 13:51:53;;;;;;;4.20;1.65;;;37.30;79.60;;;;;;4813980;29;20077;-90
2022/07/19 13:54:22;;;;;;;2.80;2.00;;;37.00;80.20;;;;;;4813693;29;20046;-90
2022/07/19 13:57:05;;;;;;;4.30;1.67;;;37.10;81.00;;;;;;4802836;29;20507;-90
2022/07/19 13:59:33;;;;;;;2.28;2.00;;;36.90;79.90;;;;;;4790484;29;20072;-91
2022/07/19 14:01:59;;;;;;;2.40;2.00;;;36.30;80.50;;;;;;4787604;29;20049;-92
2022/07/19 14:04:31;;;;;;;3.40;2.08;;;36.90;79.60;;;;;;4789886;29;20072;-92
2022/07/19 14:07:06;;;;;;;;;;;;;;;;;;;;;
2022/07/19 14:09:36;;;;;;;2.88;1.75;;;36.80;80.20;;;;;;4804224;29;20054;-91
2022/07/19 14:12:09;;;;;;;2.10;1.60;;;36.90;79.90;;;;;;4830521;29;20037;-91
2022/07/19 14:14:35;;;;;;;4.50;1.70;;;37.00;79.60;;;;;;4819576;29;20042;-93
2022/07/19 14:17:10;;;;;;;5.75;1.92;;;36.90;79.70;;;;;;4833330;29;20046;-91
2022/07/19 14:19:38;;;;;;;2.38;1.58;;;36.80;80.20;;;;;;4832632;29;20184;-91
2022/07/19 14:22:10;;;;;;;2.28;1.63;;;36.90;80.00;;;;;;4830402;29;20054;-89
2022/07/19 14:24:35;;;;;;;2.10;1.90;;;37.10;78.90;;;;;;4800856;29;20088;-88
2022/07/19 14:27:04;;;;;;;3.63;2.25;;;35.40;77.70;;;;;;4828756;29;20050;-91
2022/07/19 14:29:29;;;;;;;2.50;1.80;;;36.80;79.50;;;;;;4834919;29;20037;-91
2022/07/19 14:31:55;;;;;;;3.20;1.80;;;36.80;78.40;;;;;;4835662;29;20057;-90
2022/07/19 14:34:22;;;;;;;2.22;1.80;;;36.40;78.00;;;;;;4812668;29;20045;-90
2022/07/19 14:36:54;;;;;;;1.63;1.52;;;36.70;78.70;;;;;;4850872;29;20046;-89
2022/07/19 14:39:19;;;;;;;2.20;1.70;;;36.70;77.10;;;;;;4802429;29;20058;-92
2022/07/19 14:41:48;;;;;;;1.67;1.52;;;36.70;78.00;;;;;;4816720;29;20037;-91
2022/07/19 14:44:14;;;;;;;3.30;1.80;;;36.80;78.80;;;;;;4844607;29;20079;-90
2022/07/19 14:46:48;;;;;;;3.30;1.50;;;36.70;78.10;;;;;;4828623;29;20087;-89
2022/07/19 14:49:17;;;;;;;3.05;1.60;;;36.80;77.90;;;;;;4816003;29;20113;-90
2022/07/19 14:51:43;;;;;;;4.05;1.60;;;36.70;77.40;;;;;;4813469;29;20050;-91
2022/07/19 14:54:09;;;;;;;3.53;1.50;;;36.80;77.30;;;;;;4827885;29;20049;-91
2022/07/19 14:56:37;;;;;;;3.58;1.67;;;35.30;76.10;;;;;;4796531;29;20087;-89
2022/07/19 14:59:06;;;;;;;3.08;1.58;;;36.60;77.90;;;;;;4812928;29;20050;-91
2022/07/19 15:01:32;;;;;;;2.00;1.50;;;36.80;77.60;;;;;;4825270;29;20086;-90
2022/07/19 15:03:58;;;;;;;3.35;1.60;;;36.90;76.50;;;;;;4808400;29;20132;-87
2022/07/19 15:06:27;;;;;;;5.18;1.95;;;36.80;75.80;;;;;;4838066;29;20058;-91
2022/07/19 15:08:52;;;;;;;4.15;1.75;;;36.60;76.60;;;;;;4794090;29;20483;-90
2022/07/19 15:11:32;;;;;;;5.20;1.58;;;36.60;76.80;;;;;;4809843;29;20084;-91
2022/07/19 15:14:00;;;;;;;6.22;1.70;;;36.70;76.30;;;;;;4823716;29;20416;-90
2022/07/19 15:16:27;;;;;;;3.72;1.60;;;36.50;77.00;;;;;;4828739;29;20105;-90
2022/07/19 15:18:55;;;;;;;3.20;1.88;;;36.80;76.10;;;;;;4812247;29;20050;-92
2022/07/19 15:21:33;;;;;;;;;;;;;;;;;;;;;
2022/07/19 15:24:04;;;;;;;3.03;1.92;;;36.70;77.00;;;;;;4818458;29;20050;-88
2022/07/19 15:26:56;;;;;;;2.22;1.95;;;36.70;76.10;;;;;;4799884;29;20049;-91
2022/07/19 15:29:31;;;;;;;;;;;;;;;;;;;;;
2022/07/19 15:32:10;;;;;;;4.70;1.90;;;36.70;77.00;;;;;;4811972;29;20086;-89
2022/07/19 15:34:44;;;;;;;5.25;1.88;;;36.70;76.80;;;;;;4799463;29;20107;-91
2022/07/19 15:37:10;;;;;;;2.30;1.85;;;36.70;77.50;;;;;;4831004;29;20054;-86
2022/07/19 15:39:35;;;;;;;5.35;2.10;;;36.80;77.00;;;;;;4807580;29;20089;-88
2022/07/19 15:42:19;;;;;;;3.45;1.90;;;36.70;76.20;;;;;;4847699;29;20042;-88
2022/07/19 15:44:55;;;;;;;;;;;;;;;;;;;;;
2022/07/19 15:47:23;;;;;;;3.58;1.90;;;36.10;76.60;;;;;;4821281;29;20167;-92
2022/07/19 15:49:49;;;;;;;3.60;2.03;;;36.50;77.80;;;;;;4821291;29;20085;-92